createdAt,value
2019-05-15T00:01:21.794Z,99.90
2019-05-15T00:03:52.101Z,99.90
2019-05-15T00:06:22.377Z,99.90
2019-05-15T00:08:52.699Z,99.90
2019-05-15T00:11:22.881Z,99.90
2019-05-15T00:13:53.230Z,99.90
2019-05-15T00:16:23.360Z,99.90
2019-05-15T00:18:53.526Z,99.90
2019-05-15T00:21:23.725Z,99.90
2019-05-15T00:23:53.877Z,99.90
2019-05-15T00:26:24.149Z,99.90
2019-05-15T00:29:08.531Z,99.90
2019-05-15T00:31:28.980Z,99.90
2019-05-15T00:33:58.964Z,99.90
2019-05-15T00:36:29.408Z,99.90
2019-05-15T00:38:59.886Z,99.90
2019-05-15T00:41:30.326Z,99.90
2019-05-15T00:44:00.719Z,99.90
2019-05-15T00:46:30.993Z,99.90
2019-05-15T00:49:01.398Z,99.90
2019-05-15T00:51:31.661Z,99.90
2019-05-15T00:54:02.035Z,99.90
2019-05-15T00:56:32.410Z,99.90
2019-05-15T00:59:02.668Z,99.90
2019-05-15T01:01:32.875Z,99.90
2019-05-15T01:04:03.357Z,99.90
2019-05-15T01:06:33.881Z,99.90
2019-05-15T01:09:05.614Z,99.90
2019-05-15T01:11:37.967Z,99.90
2019-05-15T01:14:11.944Z,99.90
2019-05-15T01:16:39.902Z,99.90
2019-05-15T01:19:10.253Z,99.90
2019-05-15T01:21:40.625Z,99.90
2019-05-15T01:24:10.935Z,99.90
2019-05-15T01:26:41.141Z,99.90
2019-05-15T01:29:11.417Z,99.90
2019-05-15T01:31:41.620Z,99.90
2019-05-15T01:34:12.013Z,99.90
2019-05-15T01:36:42.286Z,99.90
2019-05-15T01:39:12.713Z,99.90
2019-05-15T01:41:42.960Z,99.90
2019-05-15T01:44:13.410Z,99.90
2019-05-15T01:46:43.681Z,99.90
2019-05-15T01:49:14.038Z,99.90
2019-05-15T01:51:44.258Z,99.90
2019-05-15T01:54:14.535Z,99.90
2019-05-15T01:56:44.827Z,99.90
2019-05-15T01:59:14.957Z,99.90
2019-05-15T02:01:45.233Z,99.90
2019-05-15T02:04:15.456Z,99.90
2019-05-15T02:06:48.090Z,99.90
2019-05-15T02:09:18.529Z,99.90
2019-05-15T02:11:49.068Z,99.90
2019-05-15T02:14:19.512Z,99.90
2019-05-15T02:16:49.809Z,99.90
2019-05-15T02:19:20.101Z,99.90
2019-05-15T02:21:50.401Z,99.90
2019-05-15T02:24:20.685Z,99.90
2019-05-15T02:26:50.985Z,99.90
2019-05-15T02:29:25.119Z,99.90
2019-05-15T02:31:53.312Z,99.90
2019-05-15T02:34:23.577Z,99.90
2019-05-15T02:36:53.957Z,99.90
2019-05-15T02:39:24.226Z,99.90
2019-05-15T02:41:54.590Z,99.90
2019-05-15T02:44:24.862Z,99.90
2019-05-15T02:46:55.099Z,99.90
2019-05-15T02:49:25.457Z,99.90
2019-05-15T02:51:55.814Z,99.90
2019-05-15T02:54:29.574Z,99.90
2019-05-15T02:56:59.000Z,99.90
2019-05-15T02:59:29.400Z,99.90
2019-05-15T03:01:59.728Z,99.90
2019-05-15T03:04:30.099Z,99.90
2019-05-15T03:07:00.574Z,99.90
2019-05-15T03:09:30.929Z,99.90
2019-05-15T03:12:01.286Z,99.90
2019-05-15T03:14:31.731Z,99.90
2019-05-15T03:17:02.076Z,99.90
2019-05-15T03:19:32.470Z,99.90
2019-05-15T03:22:02.681Z,99.90
2019-05-15T03:24:32.945Z,99.90
2019-05-15T03:27:03.338Z,99.90
2019-05-15T03:29:33.684Z,99.90
2019-05-15T03:32:18.231Z,99.90
2019-05-15T03:34:44.723Z,99.90
2019-05-15T03:37:11.999Z,99.90
2019-05-15T03:39:40.066Z,99.90
2019-05-15T03:42:10.345Z,99.90
2019-05-15T03:44:40.785Z,99.90
2019-05-15T03:47:11.246Z,99.90
2019-05-15T03:49:41.569Z,99.90
2019-05-15T03:52:11.919Z,99.90
2019-05-15T03:54:42.426Z,99.90
2019-05-15T03:57:12.882Z,99.90
2019-05-15T03:59:43.325Z,99.90
2019-05-15T04:02:13.809Z,99.90
2019-05-15T04:04:44.297Z,99.90
2019-05-15T04:07:14.809Z,99.90
2019-05-15T04:09:45.178Z,99.90
2019-05-15T04:12:15.625Z,99.90
2019-05-15T04:14:45.973Z,99.90
2019-05-15T04:17:19.521Z,99.90
2019-05-15T04:19:49.685Z,99.90
2019-05-15T04:22:20.230Z,99.90
2019-05-15T04:24:51.109Z,99.90
2019-05-15T04:27:22.905Z,99.90
2019-05-15T04:29:53.266Z,99.90
2019-05-15T04:32:23.753Z,99.90
2019-05-15T04:34:54.489Z,99.90
2019-05-15T04:37:24.796Z,99.90
2019-05-15T04:39:55.060Z,99.90
2019-05-15T04:42:25.349Z,99.90
2019-05-15T04:44:55.675Z,99.90
2019-05-15T04:47:26.119Z,99.90
2019-05-15T04:49:58.910Z,99.90
2019-05-15T04:52:30.402Z,99.90
2019-05-15T04:55:00.286Z,99.90
2019-05-15T04:57:34.142Z,99.90
2019-05-15T05:00:03.228Z,99.90
2019-05-15T05:02:33.575Z,99.90
2019-05-15T05:05:10.086Z,99.90
2019-05-15T05:07:39.771Z,99.90
2019-05-15T05:10:10.420Z,99.90
2019-05-15T05:12:42.360Z,99.90
2019-05-15T05:15:12.911Z,99.90
2019-05-15T05:17:43.381Z,99.90
2019-05-15T05:20:13.801Z,99.90
2019-05-15T05:22:44.193Z,99.90
2019-05-15T05:25:14.798Z,99.90
2019-05-15T05:27:45.159Z,99.90
2019-05-15T05:30:16.162Z,99.90
2019-05-15T05:32:48.708Z,99.90
2019-05-15T05:35:19.253Z,99.90
2019-05-15T05:37:49.633Z,99.90
2019-05-15T05:40:19.985Z,99.90
2019-05-15T05:42:50.277Z,99.90
2019-05-15T05:45:20.717Z,99.90
2019-05-15T05:47:51.013Z,99.90
2019-05-15T05:50:38.349Z,99.90
2019-05-15T05:53:08.912Z,99.90
2019-05-15T05:55:39.362Z,99.90
2019-05-15T05:58:10.228Z,99.90
2019-05-15T06:00:48.583Z,99.90
2019-05-15T06:03:19.619Z,99.90
2019-05-15T06:05:50.437Z,99.90
2019-05-15T06:08:20.836Z,99.90
2019-05-15T06:10:51.253Z,99.90
2019-05-15T06:13:21.670Z,99.90
2019-05-15T06:15:51.978Z,99.90
2019-05-15T06:18:22.370Z,99.90
2019-05-15T06:20:52.653Z,99.90
2019-05-15T06:23:25.332Z,99.90
2019-05-15T06:25:54.977Z,99.90
2019-05-15T06:28:25.381Z,99.90
2019-05-15T06:31:00.362Z,99.90
2019-05-15T06:33:27.863Z,99.90
2019-05-15T06:35:59.318Z,99.90
2019-05-15T06:38:30.882Z,99.90
2019-05-15T06:41:01.551Z,99.90
2019-05-15T06:43:31.956Z,99.90
2019-05-15T06:46:02.401Z,99.90
2019-05-15T06:48:32.789Z,99.90
2019-05-15T06:51:02.942Z,99.90
2019-05-15T06:53:33.222Z,99.90
2019-05-15T06:56:03.699Z,99.90
2019-05-15T06:58:34.076Z,99.90
2019-05-15T07:01:04.365Z,99.90
2019-05-15T07:03:34.789Z,99.90
2019-05-15T07:06:05.216Z,99.90
2019-05-15T07:08:38.074Z,99.90
2019-05-15T07:11:08.911Z,99.90
2019-05-15T07:13:39.349Z,99.90
2019-05-15T07:16:09.736Z,99.90
2019-05-15T07:18:39.933Z,99.90
2019-05-15T07:21:10.753Z,99.90
2019-05-15T07:23:41.036Z,99.90
2019-05-15T07:26:11.435Z,99.90
2019-05-15T07:28:41.810Z,99.90
2019-05-15T07:31:12.112Z,99.90
2019-05-15T07:33:43.871Z,99.90
2019-05-15T07:36:14.413Z,99.90
2019-05-15T07:38:44.733Z,99.90
2019-05-15T07:41:15.113Z,99.90
2019-05-15T07:43:45.418Z,99.90
2019-05-15T07:46:15.783Z,99.90
2019-05-15T07:48:46.697Z,99.90
2019-05-15T07:51:18.188Z,99.90
2019-05-15T07:53:49.188Z,99.90
2019-05-15T07:56:19.550Z,99.90
2019-05-15T07:58:52.542Z,99.90
2019-05-15T08:01:21.869Z,99.90
2019-05-15T08:03:59.037Z,99.90
2019-05-15T08:06:24.787Z,99.90
2019-05-15T08:08:55.266Z,99.90
2019-05-15T08:11:28.335Z,99.90
2019-05-15T08:13:58.329Z,99.90
2019-05-15T08:16:28.934Z,99.90
2019-05-15T08:18:59.201Z,99.90
2019-05-15T08:21:29.427Z,99.90
2019-05-15T08:23:59.810Z,99.90
2019-05-15T08:26:30.356Z,99.90
2019-05-15T08:29:00.743Z,99.90
2019-05-15T08:31:31.191Z,99.90
2019-05-15T08:34:12.829Z,99.90
2019-05-15T08:36:33.485Z,99.90
2019-05-15T08:39:08.350Z,99.90
2019-05-15T08:41:39.038Z,99.90
2019-05-15T08:44:09.742Z,99.90
2019-05-15T08:46:40.568Z,99.90
2019-05-15T08:49:10.777Z,99.90
2019-05-15T08:51:41.069Z,99.90
2019-05-15T08:54:11.411Z,99.90
2019-05-15T08:56:41.810Z,99.90
2019-05-15T08:59:12.154Z,99.90
2019-05-15T09:01:42.625Z,99.90
2019-05-15T09:04:26.624Z,99.90
2019-05-15T09:06:45.653Z,99.90
2019-05-15T09:09:18.271Z,99.90
2019-05-15T09:11:49.020Z,99.90
2019-05-15T09:14:19.612Z,99.90
2019-05-15T09:16:49.834Z,99.90
2019-05-15T09:19:20.137Z,99.90
2019-05-15T09:21:50.589Z,99.90
2019-05-15T09:24:20.941Z,99.90
2019-05-15T09:26:51.317Z,99.90
2019-05-15T09:29:21.870Z,99.90
2019-05-15T09:31:52.240Z,99.90
2019-05-15T09:34:22.513Z,99.90
2019-05-15T09:36:52.909Z,99.90
2019-05-15T09:39:23.213Z,99.90
2019-05-15T09:41:54.627Z,99.90
2019-05-15T09:44:25.096Z,99.90
2019-05-15T09:46:55.577Z,99.90
2019-05-15T09:49:28.452Z,99.90
2019-05-15T09:51:58.608Z,99.90
2019-05-15T09:54:29.505Z,99.90
2019-05-15T09:56:59.773Z,99.90
2019-05-15T09:59:30.214Z,99.90
2019-05-15T10:02:00.703Z,99.90
2019-05-15T10:04:31.222Z,99.90
2019-05-15T10:07:01.653Z,99.90
2019-05-15T10:09:31.888Z,99.90
2019-05-15T10:12:02.490Z,99.90
2019-05-15T10:14:32.979Z,99.90
2019-05-15T10:17:03.395Z,99.90
2019-05-15T10:19:33.676Z,99.90
2019-05-15T10:22:04.356Z,99.90
2019-05-15T10:24:34.853Z,99.90
2019-05-15T10:27:05.397Z,99.90
2019-05-15T10:29:35.685Z,99.90
2019-05-15T10:32:08.490Z,99.90
2019-05-15T10:34:38.486Z,99.90
2019-05-15T10:37:08.973Z,99.90
2019-05-15T10:39:39.467Z,99.90
2019-05-15T10:42:09.809Z,99.90
2019-05-15T10:44:40.032Z,99.90
2019-05-15T10:47:10.307Z,99.90
2019-05-15T10:49:40.808Z,99.90
2019-05-15T10:52:11.345Z,99.90
2019-05-15T10:54:41.981Z,99.90
2019-05-15T10:57:12.405Z,99.50
2019-05-15T10:59:42.787Z,99.50
2019-05-15T11:02:13.133Z,99.60
2019-05-15T11:04:43.693Z,99.00
2019-05-15T11:07:14.175Z,98.30
2019-05-15T11:09:44.677Z,98.10
2019-05-15T11:12:15.001Z,95.60
2019-05-15T11:14:45.649Z,94.60
2019-05-15T11:17:16.180Z,95.30
2019-05-15T11:19:49.778Z,96.00
2019-05-15T11:22:19.156Z,94.20
2019-05-15T11:24:52.830Z,94.40
2019-05-15T11:27:21.578Z,95.60
2019-05-15T11:29:51.949Z,95.40
2019-05-15T11:32:22.354Z,93.30
2019-05-15T11:34:52.749Z,92.90
2019-05-15T11:37:23.216Z,93.50
2019-05-15T11:39:53.628Z,93.90
2019-05-15T11:42:24.021Z,92.60
2019-05-15T11:44:54.489Z,91.20
2019-05-15T11:47:24.885Z,90.50
2019-05-15T11:49:55.264Z,91.80
2019-05-15T11:52:29.182Z,90.10
2019-05-15T11:54:58.950Z,91.20
2019-05-15T11:57:39.348Z,91.70
2019-05-15T12:00:03.954Z,87.60
2019-05-15T12:02:33.987Z,88.60
2019-05-15T12:05:08.956Z,90.10
2019-05-15T12:07:38.447Z,90.60
2019-05-15T12:10:10.681Z,92.30
2019-05-15T12:12:41.621Z,91.30
2019-05-15T12:15:12.573Z,90.50
2019-05-15T12:17:43.201Z,90.20
2019-05-15T12:20:13.878Z,90.30
2019-05-15T12:22:44.409Z,89.90
2019-05-15T12:25:15.170Z,88.40
2019-05-15T12:27:45.582Z,92.30
2019-05-15T12:30:19.325Z,91.00
2019-05-15T12:32:49.444Z,88.80
2019-05-15T12:35:20.642Z,90.10
2019-05-15T12:37:51.127Z,90.40
2019-05-15T13:00:39.644Z,86.20
2019-05-15T13:03:10.249Z,88.30
2019-05-15T13:05:40.699Z,89.30
2019-05-15T13:08:11.098Z,87.90
2019-05-15T13:10:41.598Z,90.10
2019-05-15T13:13:12.437Z,89.30
2019-05-15T13:15:43.045Z,89.90
2019-05-15T13:18:14.610Z,89.30
2019-05-15T13:20:45.130Z,88.80
2019-05-15T13:23:15.845Z,89.50
2019-05-15T13:25:48.392Z,89.20
2019-05-15T13:28:18.592Z,89.60
2019-05-15T13:30:49.297Z,89.20
2019-05-15T13:33:19.817Z,90.50
2019-05-15T13:35:50.225Z,90.10
2019-05-15T13:38:21.113Z,90.50
2019-05-15T13:40:51.805Z,91.30
2019-05-15T13:43:22.413Z,90.90
2019-05-15T13:45:53.109Z,89.40
2019-05-15T13:48:23.781Z,90.90
2019-05-15T13:50:54.477Z,91.60
2019-05-15T13:53:24.943Z,91.10
2019-05-15T13:55:55.652Z,91.30
2019-05-15T13:58:28.249Z,90.30
2019-05-15T14:00:58.962Z,91.70
2019-05-15T14:03:29.688Z,90.10
2019-05-15T14:05:59.905Z,91.00
2019-05-15T14:08:30.412Z,90.60
2019-05-15T14:11:00.927Z,91.00
2019-05-15T14:13:31.513Z,90.40
2019-05-15T14:16:02.273Z,92.00
2019-05-15T14:18:32.941Z,91.70
2019-05-15T14:21:03.337Z,91.60
2019-05-15T14:23:33.910Z,91.50
2019-05-15T14:26:17.586Z,91.60
2019-05-15T14:28:38.804Z,92.20
2019-05-15T14:31:09.705Z,92.00
2019-05-15T14:33:40.367Z,91.00
2019-05-15T14:36:11.366Z,90.50
2019-05-15T14:38:42.049Z,91.20
2019-05-15T14:41:12.684Z,90.60
2019-05-15T14:43:43.478Z,91.20
2019-05-15T14:46:13.977Z,90.80
2019-05-15T14:48:44.741Z,91.10
2019-05-15T14:51:15.501Z,89.50
2019-05-15T14:53:45.894Z,91.00
2019-05-15T14:56:18.415Z,89.00
2019-05-15T14:58:48.705Z,89.90
2019-05-15T15:01:19.308Z,86.80
2019-05-15T15:03:49.706Z,87.90
2019-05-15T15:06:20.289Z,87.00
2019-05-15T15:08:50.686Z,86.20
2019-05-15T15:11:21.065Z,85.00
2019-05-15T15:13:51.474Z,84.60
2019-05-15T15:16:21.854Z,87.10
2019-05-15T15:18:52.150Z,83.40
2019-05-15T15:21:22.910Z,83.80
2019-05-15T15:23:53.733Z,85.00
2019-05-15T15:26:24.297Z,82.70
2019-05-15T15:28:54.748Z,80.60
2019-05-15T15:31:25.237Z,81.80
2019-05-15T15:33:57.857Z,83.20
2019-05-15T15:36:28.544Z,81.70
2019-05-15T15:38:59.179Z,81.00
2019-05-15T15:41:29.858Z,80.60
2019-05-15T15:44:00.510Z,78.00
2019-05-15T15:46:30.899Z,78.70
2019-05-15T15:49:01.177Z,78.50
2019-05-15T15:51:31.845Z,79.80
2019-05-15T15:54:02.499Z,79.30
2019-05-15T15:56:33.161Z,78.10
2019-05-15T15:59:03.510Z,76.50
2019-05-15T16:01:34.102Z,76.10
2019-05-15T16:04:05.031Z,77.70
2019-05-15T16:06:35.495Z,75.90
2019-05-15T16:09:08.509Z,75.60
2019-05-15T16:11:39.180Z,75.50
2019-05-15T16:14:09.841Z,78.30
2019-05-15T16:16:40.501Z,75.60
2019-05-15T16:19:11.184Z,75.70
2019-05-15T16:21:41.873Z,75.90
2019-05-15T16:24:17.256Z,75.70
2019-05-15T16:26:44.671Z,76.00
2019-05-15T16:29:15.069Z,75.60
2019-05-15T16:31:45.645Z,76.10
2019-05-15T16:34:18.673Z,75.50
2019-05-15T16:36:48.919Z,75.50
2019-05-15T16:39:19.342Z,75.80
2019-05-15T16:41:49.850Z,75.80
2019-05-15T16:44:20.350Z,75.80
2019-05-15T16:46:50.829Z,75.10
2019-05-15T16:49:21.420Z,75.20
2019-05-15T16:51:52.079Z,75.90
2019-05-15T16:54:22.739Z,75.20
2019-05-15T16:56:53.018Z,75.20
2019-05-15T16:59:23.619Z,75.70
2019-05-15T17:01:54.065Z,75.50
2019-05-15T17:04:24.537Z,76.00
2019-05-15T17:06:55.286Z,76.20
2019-05-15T17:09:27.984Z,76.30
2019-05-15T17:11:58.268Z,74.60
2019-05-15T17:14:28.912Z,75.00
2019-05-15T17:16:59.234Z,76.30
2019-05-15T17:19:29.729Z,76.30
2019-05-15T17:22:00.202Z,75.60
2019-05-15T17:24:30.671Z,75.40
2019-05-15T17:27:12.349Z,75.30
2019-05-15T17:29:42.753Z,75.50
2019-05-15T17:32:13.309Z,75.50
2019-05-15T17:34:43.687Z,75.10
2019-05-15T17:37:14.089Z,75.60
2019-05-15T17:39:44.565Z,75.10
2019-05-15T17:42:14.869Z,75.70
2019-05-15T17:44:45.425Z,76.30
2019-05-15T17:47:15.825Z,75.90
2019-05-15T17:49:48.042Z,76.50
2019-05-15T17:52:18.430Z,76.40
2019-05-15T17:54:49.306Z,76.40
2019-05-15T17:57:19.792Z,76.10
2019-05-15T17:59:50.169Z,77.00
2019-05-15T18:02:20.518Z,77.70
2019-05-15T18:04:51.263Z,77.90
2019-05-15T18:07:21.829Z,79.20
2019-05-15T18:09:54.457Z,79.00
2019-05-15T18:12:24.848Z,79.90
2019-05-15T18:14:55.435Z,80.30
2019-05-15T18:17:25.922Z,80.70
2019-05-15T18:19:58.100Z,81.70
2019-05-15T18:22:28.715Z,82.80
2019-05-15T18:24:59.388Z,82.40
2019-05-15T18:27:30.115Z,82.90
2019-05-15T18:30:00.790Z,83.60
2019-05-15T18:32:31.373Z,84.40
2019-05-15T18:35:02.237Z,83.90
2019-05-15T18:37:33.018Z,83.40
2019-05-15T18:40:06.254Z,84.40
2019-05-15T18:42:38.951Z,84.40
2019-05-15T18:45:11.389Z,85.00
2019-05-15T18:47:41.941Z,85.70
2019-05-15T18:50:13.696Z,86.00
2019-05-15T18:52:44.172Z,87.10
2019-05-15T18:55:14.702Z,88.60
2019-05-15T18:57:45.460Z,89.00
2019-05-15T19:00:18.372Z,89.60
2019-05-15T19:02:49.319Z,89.20
2019-05-15T19:05:20.051Z,89.60
2019-05-15T19:07:50.614Z,90.00
2019-05-15T19:10:21.410Z,90.30
2019-05-15T19:12:51.794Z,90.60
2019-05-15T19:15:22.514Z,90.70
2019-05-15T19:17:53.111Z,91.00
2019-05-15T19:20:23.757Z,91.30
2019-05-15T19:22:54.226Z,91.20
2019-05-15T19:25:24.821Z,91.70
2019-05-15T19:27:55.501Z,91.50
2019-05-15T19:30:28.498Z,91.00
2019-05-15T19:32:58.745Z,91.60
2019-05-15T19:35:29.413Z,91.90
2019-05-15T19:37:59.905Z,92.40
2019-05-15T19:40:30.477Z,93.50
2019-05-15T19:43:03.855Z,94.00
2019-05-15T19:45:33.189Z,94.10
2019-05-15T19:48:04.085Z,94.70
2019-05-15T19:50:35.456Z,94.70
2019-05-15T19:53:08.027Z,95.00
2019-05-15T19:55:38.008Z,95.10
2019-05-15T19:58:08.820Z,95.40
2019-05-15T20:00:39.577Z,95.80
2019-05-15T20:03:10.073Z,96.10
2019-05-15T20:05:40.617Z,96.10
2019-05-15T20:08:11.314Z,96.50
2019-05-15T20:10:41.982Z,96.50
2019-05-15T20:13:12.542Z,96.40
2019-05-15T20:15:43.041Z,96.10
2019-05-15T20:18:13.934Z,97.20
2019-05-15T20:20:44.624Z,97.10
2019-05-15T20:23:14.904Z,96.80
2019-05-15T20:25:45.323Z,96.90
2019-05-15T20:28:15.865Z,97.90
2019-05-15T20:30:48.198Z,97.70
2019-05-15T20:33:18.713Z,97.80
2019-05-15T20:35:49.135Z,97.30
2019-05-15T20:38:19.609Z,97.00
2019-05-15T20:40:50.173Z,97.60
2019-05-15T20:43:20.750Z,98.30
2019-05-15T20:45:51.040Z,98.50
2019-05-15T20:48:21.423Z,97.60
2019-05-15T20:50:51.909Z,98.30
2019-05-15T20:53:22.564Z,98.30
2019-05-15T20:55:52.938Z,99.40
2019-05-15T20:58:23.420Z,99.90
2019-05-15T21:00:53.989Z,99.90
2019-05-15T21:03:24.457Z,99.70
2019-05-15T21:05:54.974Z,99.90
2019-05-15T21:08:25.540Z,99.90
2019-05-15T21:10:58.499Z,99.90
2019-05-15T21:13:29.873Z,99.90
2019-05-15T21:16:00.390Z,99.90
2019-05-15T21:18:30.689Z,99.90
2019-05-15T21:21:00.973Z,99.90
2019-05-15T21:23:31.365Z,99.90
2019-05-15T21:26:01.777Z,99.90
2019-05-15T21:28:32.067Z,99.90
2019-05-15T21:31:02.270Z,99.90
2019-05-15T21:33:33.260Z,99.90
2019-05-15T21:36:03.781Z,99.90
2019-05-15T21:38:34.069Z,99.90
2019-05-15T21:41:04.417Z,99.90
2019-05-15T21:43:35.004Z,99.90
2019-05-15T21:46:05.361Z,99.90
2019-05-15T21:48:38.102Z,99.90
2019-05-15T21:51:11.284Z,99.90
2019-05-15T21:53:39.982Z,99.90
2019-05-15T21:56:10.420Z,99.90
2019-05-15T21:58:40.808Z,99.90
2019-05-15T22:01:11.360Z,99.90
2019-05-15T22:03:42.178Z,99.90
2019-05-15T22:06:12.602Z,99.90
2019-05-15T22:08:43.017Z,99.90
2019-05-15T22:11:13.971Z,99.90
2019-05-15T22:13:44.310Z,99.90
2019-05-15T22:16:14.942Z,99.90
2019-05-15T22:18:47.725Z,99.90
2019-05-15T22:21:18.594Z,99.90
2019-05-15T22:23:49.234Z,99.90
2019-05-15T22:26:21.518Z,99.90
2019-05-15T22:28:51.341Z,99.90
2019-05-15T22:31:21.621Z,99.90
2019-05-15T22:33:52.109Z,99.90
2019-05-15T22:36:22.408Z,99.90
2019-05-15T22:38:52.828Z,99.90
2019-05-15T22:41:22.957Z,99.90
2019-05-15T22:43:53.177Z,99.90
2019-05-15T22:46:23.602Z,99.90
2019-05-15T22:48:54.175Z,99.90
2019-05-15T22:51:24.456Z,99.90
2019-05-15T22:53:54.935Z,99.90
2019-05-15T22:56:25.208Z,99.90
2019-05-15T22:58:55.421Z,99.90
2019-05-15T23:01:25.769Z,99.90
2019-05-15T23:03:58.234Z,99.90
2019-05-15T23:06:28.416Z,99.90
2019-05-15T23:08:58.713Z,99.90
2019-05-15T23:11:29.955Z,99.90
2019-05-15T23:14:00.270Z,99.90
2019-05-15T23:16:30.537Z,99.90
2019-05-15T23:19:01.133Z,99.90
2019-05-15T23:21:31.486Z,99.90
2019-05-15T23:24:01.782Z,99.90
2019-05-15T23:26:32.048Z,99.90
2019-05-15T23:29:02.333Z,99.90
2019-05-15T23:31:32.537Z,99.90
2019-05-15T23:34:02.663Z,99.90
2019-05-15T23:36:32.881Z,99.90
2019-05-15T23:39:03.144Z,99.90
2019-05-15T23:41:45.434Z,99.90
2019-05-15T23:44:15.769Z,99.90
2019-05-15T23:46:45.917Z,99.90
2019-05-15T23:49:16.193Z,99.90
2019-05-15T23:51:48.676Z,99.90
2019-05-15T23:54:18.597Z,99.90
2019-05-15T23:56:49.153Z,99.90
2019-05-15T23:59:19.348Z,99.90
